createdAt,value
2018-04-06T00:00:06.939Z,0.00
2018-04-06T00:01:06.999Z,0.00
2018-04-06T00:02:07.067Z,0.00
2018-04-06T00:03:07.119Z,0.00
2018-04-06T00:04:07.291Z,0.00
2018-04-06T00:05:07.239Z,0.00
2018-04-06T00:06:07.288Z,0.00
2018-04-06T00:07:07.375Z,0.00
2018-04-06T00:08:07.407Z,0.00
2018-04-06T00:09:07.475Z,0.00
2018-04-06T00:10:07.576Z,0.00
2018-04-06T00:11:07.583Z,0.00
2018-04-06T00:12:07.667Z,0.00
2018-04-06T00:13:07.700Z,0.00
2018-04-06T00:14:07.771Z,0.00
2018-04-06T00:15:07.856Z,0.00
2018-04-06T00:16:07.888Z,0.00
2018-04-06T00:17:07.964Z,0.00
2018-04-06T00:18:07.992Z,0.00
2018-04-06T00:19:08.084Z,0.00
2018-04-06T00:20:08.140Z,0.00
2018-04-06T00:21:08.200Z,0.00
2018-04-06T00:22:08.232Z,0.00
2018-04-06T00:23:08.296Z,0.00
2018-04-06T00:24:08.377Z,0.00
2018-04-06T00:25:08.460Z,0.00
2018-04-06T00:26:08.496Z,0.00
2018-04-06T00:27:08.524Z,0.00
2018-04-06T00:28:08.652Z,0.00
2018-04-06T00:29:08.653Z,0.00
2018-04-06T00:30:08.712Z,0.00
2018-04-06T00:31:08.764Z,0.00
2018-04-06T00:32:08.820Z,0.00
2018-04-06T00:33:08.880Z,0.00
2018-04-06T00:34:08.973Z,0.00
2018-04-06T00:35:09.008Z,0.00
2018-04-06T00:36:09.056Z,0.00
2018-04-06T00:37:09.120Z,0.00
2018-04-06T00:38:09.181Z,0.00
2018-04-06T00:39:09.233Z,0.00
2018-04-06T00:40:09.413Z,0.00
2018-04-06T00:41:09.365Z,0.00
2018-04-06T00:42:09.413Z,0.00
2018-04-06T00:43:09.469Z,0.00
2018-04-06T00:44:09.533Z,0.00
2018-04-06T00:45:09.597Z,0.00
2018-04-06T00:46:09.661Z,0.00
2018-04-06T00:47:09.705Z,0.00
2018-04-06T00:48:09.767Z,0.00
2018-04-06T00:49:09.825Z,0.00
2018-04-06T00:50:09.891Z,0.00
2018-04-06T00:51:09.949Z,0.00
2018-04-06T00:52:10.001Z,0.00
2018-04-06T00:53:10.065Z,0.00
2018-04-06T00:54:10.117Z,0.00
2018-04-06T00:55:10.184Z,0.00
2018-04-06T00:56:10.269Z,0.00
2018-04-06T00:57:10.298Z,0.00
2018-04-06T00:58:10.357Z,0.00
2018-04-06T00:59:10.414Z,0.00
2018-04-06T01:00:10.477Z,0.00
2018-04-06T01:01:10.538Z,0.00
2018-04-06T01:02:10.601Z,0.00
2018-04-06T01:03:10.657Z,0.00
2018-04-06T01:04:10.715Z,0.00
2018-04-06T01:05:10.770Z,0.00
2018-04-06T01:06:10.834Z,0.00
2018-04-06T01:07:10.891Z,0.00
2018-04-06T01:08:10.944Z,0.00
2018-04-06T01:09:11.002Z,0.00
2018-04-06T01:10:11.062Z,0.00
2018-04-06T01:11:11.154Z,0.00
2018-04-06T01:12:11.178Z,0.00
2018-04-06T01:13:11.242Z,0.00
2018-04-06T01:14:11.302Z,0.00
2018-04-06T01:15:11.354Z,0.00
2018-04-06T01:16:11.422Z,0.00
2018-04-06T01:17:11.478Z,0.00
2018-04-06T01:18:11.538Z,0.00
2018-04-06T01:19:11.599Z,0.00
2018-04-06T01:20:11.650Z,0.00
2018-04-06T01:21:11.714Z,0.00
2018-04-06T01:22:11.774Z,0.00
2018-04-06T01:23:11.839Z,0.00
2018-04-06T01:24:11.887Z,0.00
2018-04-06T01:25:11.943Z,0.00
2018-04-06T01:26:12.019Z,0.00
2018-04-06T01:27:12.074Z,0.00
2018-04-06T01:28:12.141Z,0.00
2018-04-06T01:29:12.182Z,0.00
2018-04-06T01:30:12.239Z,0.00
2018-04-06T01:31:12.458Z,0.00
2018-04-06T01:32:12.359Z,0.00
2018-04-06T01:33:12.423Z,0.00
2018-04-06T01:34:12.484Z,0.00
2018-04-06T01:35:12.535Z,0.00
2018-04-06T01:36:12.607Z,0.00
2018-04-06T01:37:12.659Z,0.00
2018-04-06T01:38:12.711Z,0.00
2018-04-06T01:39:12.771Z,0.00
2018-04-06T01:40:12.827Z,0.00
2018-04-06T01:41:12.891Z,0.00
2018-04-06T01:42:12.951Z,0.00
2018-04-06T01:43:13.003Z,0.00
2018-04-06T01:44:13.067Z,0.00
2018-04-06T01:45:13.124Z,0.00
2018-04-06T01:46:13.427Z,0.00
2018-04-06T01:47:13.239Z,0.00
2018-04-06T01:48:13.299Z,0.00
2018-04-06T01:49:13.359Z,0.00
2018-04-06T01:50:13.416Z,0.00
2018-04-06T01:51:13.484Z,0.00
2018-04-06T01:52:13.539Z,0.00
2018-04-06T01:53:13.592Z,0.00
2018-04-06T01:54:13.652Z,0.00
2018-04-06T01:55:13.708Z,0.00
2018-04-06T01:56:13.778Z,0.00
2018-04-06T01:57:13.836Z,0.00
2018-04-06T01:58:13.888Z,0.00
2018-04-06T01:59:13.944Z,0.00
2018-04-06T02:00:14.008Z,0.00
2018-04-06T02:01:14.067Z,0.00
2018-04-06T02:02:14.131Z,0.00
2018-04-06T02:03:14.184Z,0.00
2018-04-06T02:04:14.258Z,0.00
2018-04-06T02:05:14.306Z,0.00
2018-04-06T02:06:14.368Z,0.00
2018-04-06T02:07:14.424Z,0.00
2018-04-06T02:08:14.472Z,0.00
2018-04-06T02:09:14.536Z,0.00
2018-04-06T02:10:14.593Z,0.00
2018-04-06T02:11:14.660Z,0.00
2018-04-06T02:12:14.717Z,0.00
2018-04-06T02:13:14.773Z,0.00
2018-04-06T02:14:14.828Z,0.00
2018-04-06T02:15:14.885Z,0.00
2018-04-06T02:16:14.949Z,0.00
2018-04-06T02:17:15.009Z,0.00
2018-04-06T02:18:15.060Z,0.00
2018-04-06T02:19:15.121Z,0.00
2018-04-06T02:20:15.177Z,0.00
2018-04-06T02:21:15.365Z,0.00
2018-04-06T02:22:15.297Z,0.00
2018-04-06T02:23:15.353Z,0.00
2018-04-06T02:24:15.413Z,0.00
2018-04-06T02:25:15.473Z,0.00
2018-04-06T02:26:15.551Z,0.00
2018-04-06T02:27:15.597Z,0.00
2018-04-06T02:28:15.655Z,0.00
2018-04-06T02:29:15.706Z,0.00
2018-04-06T02:30:15.765Z,0.00
2018-04-06T02:31:15.829Z,0.00
2018-04-06T02:32:15.890Z,0.00
2018-04-06T02:33:15.942Z,0.00
2018-04-06T02:34:16.002Z,0.00
2018-04-06T02:35:16.063Z,0.00
2018-04-06T02:36:16.177Z,0.00
2018-04-06T02:37:16.177Z,0.00
2018-04-06T02:38:16.234Z,0.00
2018-04-06T02:39:16.294Z,0.00
2018-04-06T02:40:16.360Z,0.00
2018-04-06T02:41:16.422Z,0.00
2018-04-06T02:42:16.482Z,0.00
2018-04-06T02:43:16.530Z,0.00
2018-04-06T02:44:16.590Z,0.00
2018-04-06T02:45:16.647Z,0.00
2018-04-06T02:46:16.711Z,0.00
2018-04-06T02:47:16.772Z,0.00
2018-04-06T02:48:16.826Z,0.00
2018-04-06T02:49:16.879Z,0.00
2018-04-06T02:50:16.939Z,0.00
2018-04-06T02:51:17.003Z,0.00
2018-04-06T02:52:17.062Z,0.00
2018-04-06T02:53:17.115Z,0.00
2018-04-06T02:54:17.175Z,0.00
2018-04-06T02:55:17.235Z,0.00
2018-04-06T02:56:17.308Z,0.00
2018-04-06T02:57:17.351Z,0.00
2018-04-06T02:58:17.422Z,0.00
2018-04-06T02:59:17.471Z,0.00
2018-04-06T03:00:17.523Z,0.00
2018-04-06T03:01:17.591Z,0.00
2018-04-06T03:02:17.650Z,0.00
2018-04-06T03:03:17.699Z,0.00
2018-04-06T03:04:17.759Z,0.00
2018-04-06T03:05:17.815Z,0.00
2018-04-06T03:06:17.882Z,0.00
2018-04-06T03:07:17.939Z,0.00
2018-04-06T03:08:17.991Z,0.00
2018-04-06T03:09:18.097Z,0.00
2018-04-06T03:10:18.119Z,0.00
2018-04-06T03:11:18.339Z,0.00
2018-04-06T03:12:18.229Z,0.00
2018-04-06T03:13:18.287Z,0.00
2018-04-06T03:14:18.342Z,0.00
2018-04-06T03:15:18.403Z,0.00
2018-04-06T03:16:18.471Z,0.00
2018-04-06T03:17:18.527Z,0.00
2018-04-06T03:18:18.579Z,0.00
2018-04-06T03:19:18.636Z,0.00
2018-04-06T03:20:18.696Z,0.00
2018-04-06T03:21:18.769Z,0.00
2018-04-06T03:22:18.819Z,0.00
2018-04-06T03:23:18.868Z,0.00
2018-04-06T03:24:18.948Z,0.00
2018-04-06T03:25:18.988Z,0.00
2018-04-06T03:26:19.052Z,0.00
2018-04-06T03:27:19.116Z,0.00
2018-04-06T03:28:19.167Z,0.00
2018-04-06T03:29:19.222Z,0.00
2018-04-06T03:30:19.282Z,0.00
2018-04-06T03:31:19.353Z,0.00
2018-04-06T03:32:19.411Z,0.00
2018-04-06T03:33:19.456Z,0.00
2018-04-06T03:34:19.516Z,0.00
2018-04-06T03:35:19.576Z,0.00
2018-04-06T03:36:19.641Z,0.00
2018-04-06T03:37:19.732Z,0.00
2018-04-06T03:38:19.768Z,0.00
2018-04-06T03:39:19.800Z,0.00
2018-04-06T03:40:19.873Z,0.00
2018-04-06T03:41:19.964Z,0.00
2018-04-06T03:42:20.001Z,0.00
2018-04-06T03:43:20.073Z,0.00
2018-04-06T03:44:20.105Z,0.00
2018-04-06T03:45:20.166Z,0.00
2018-04-06T03:46:20.641Z,0.00
2018-04-06T03:47:20.289Z,0.00
2018-04-06T03:48:20.349Z,0.00
2018-04-06T03:49:20.388Z,0.00
2018-04-06T03:50:20.449Z,0.00
2018-04-06T03:51:20.513Z,0.00
2018-04-06T03:52:20.600Z,0.00
2018-04-06T03:53:20.624Z,0.00
2018-04-06T03:54:20.705Z,0.00
2018-04-06T03:55:20.789Z,0.00
2018-04-06T03:56:20.813Z,0.00
2018-04-06T03:57:20.861Z,0.00
2018-04-06T03:58:20.941Z,0.00
2018-04-06T03:59:21.685Z,0.00
2018-04-06T04:00:21.046Z,0.00
2018-04-06T04:01:21.085Z,0.00
2018-04-06T04:02:21.155Z,0.00
2018-04-06T04:03:21.333Z,0.00
2018-04-06T04:04:21.269Z,0.00
2018-04-06T04:05:21.329Z,0.00
2018-04-06T04:06:21.401Z,0.00
2018-04-06T04:07:21.454Z,0.00
2018-04-06T04:08:21.506Z,0.00
2018-04-06T04:09:21.577Z,0.00
2018-04-06T04:10:21.614Z,0.00
2018-04-06T04:11:21.677Z,0.00
2018-04-06T04:12:21.754Z,0.00
2018-04-06T04:13:21.891Z,0.00
2018-04-06T04:14:21.878Z,0.00
2018-04-06T04:15:21.946Z,0.00
2018-04-06T04:16:22.017Z,0.00
2018-04-06T04:17:22.038Z,0.00
2018-04-06T04:18:22.149Z,0.00
2018-04-06T04:19:22.174Z,0.00
2018-04-06T04:20:22.200Z,0.00
2018-04-06T04:21:22.301Z,0.00
2018-04-06T04:22:22.318Z,0.00
2018-04-06T04:23:22.406Z,0.00
2018-04-06T04:24:22.482Z,4.00
2018-04-06T04:25:22.502Z,0.00
2018-04-06T04:26:22.562Z,0.00
2018-04-06T04:27:22.642Z,4.00
2018-04-06T04:28:22.662Z,4.00
2018-04-06T04:29:22.735Z,4.00
2018-04-06T04:30:22.793Z,4.00
2018-04-06T04:31:22.839Z,4.00
2018-04-06T04:32:22.898Z,4.00
2018-04-06T04:33:22.963Z,4.00
2018-04-06T04:34:23.076Z,8.00
2018-04-06T04:35:23.154Z,8.00
2018-04-06T04:36:23.135Z,12.00
2018-04-06T04:37:23.190Z,12.00
2018-04-06T04:38:23.255Z,16.00
2018-04-06T04:39:23.311Z,20.00
2018-04-06T04:40:23.374Z,20.00
2018-04-06T04:41:23.435Z,24.00
2018-04-06T04:42:24.065Z,32.00
2018-04-06T04:43:23.542Z,36.00
2018-04-06T04:44:23.610Z,44.00
2018-04-06T04:45:23.663Z,48.00
2018-04-06T04:46:23.715Z,56.00
2018-04-06T04:47:23.779Z,60.00
2018-04-06T04:48:23.839Z,72.00
2018-04-06T04:49:23.899Z,80.00
2018-04-06T04:50:23.973Z,88.00
2018-04-06T04:51:24.003Z,100.00
2018-04-06T04:52:24.063Z,112.00
2018-04-06T04:53:24.124Z,124.00
2018-04-06T04:54:24.179Z,140.00
2018-04-06T04:55:24.279Z,152.00
2018-04-06T04:56:24.299Z,168.00
2018-04-06T04:57:24.364Z,188.00
2018-04-06T04:58:24.420Z,208.00
2018-04-06T04:59:24.483Z,228.00
2018-04-06T05:00:24.611Z,248.00
2018-04-06T05:01:24.676Z,272.00
2018-04-06T05:02:24.660Z,296.00
2018-04-06T05:03:24.704Z,324.00
2018-04-06T05:04:24.760Z,356.00
2018-04-06T05:05:24.872Z,384.00
2018-04-06T05:06:24.899Z,412.00
2018-04-06T05:07:25.008Z,444.00
2018-04-06T05:08:24.991Z,480.00
2018-04-06T05:09:25.052Z,512.00
2018-04-06T05:10:25.718Z,552.00
2018-04-06T05:11:26.200Z,588.00
2018-04-06T05:12:27.408Z,628.00
2018-04-06T05:13:25.331Z,660.00
2018-04-06T05:14:25.721Z,704.00
2018-04-06T05:15:25.704Z,760.00
2018-04-06T05:16:25.583Z,804.00
2018-04-06T05:17:25.545Z,836.00
2018-04-06T05:18:25.724Z,868.00
2018-04-06T05:19:25.703Z,892.00
2018-04-06T05:20:25.845Z,924.00
2018-04-06T05:21:25.861Z,964.00
2018-04-06T05:22:25.836Z,1008.00
2018-04-06T05:23:25.880Z,1044.00
2018-04-06T05:24:26.074Z,1084.00
2018-04-06T05:25:26.164Z,1144.00
2018-04-06T05:26:26.193Z,1232.00
2018-04-06T05:27:26.184Z,1304.00
2018-04-06T05:28:26.191Z,1356.00
2018-04-06T05:29:26.223Z,1400.00
2018-04-06T05:30:26.425Z,1444.00
2018-04-06T05:31:26.361Z,1488.00
2018-04-06T05:32:26.496Z,1532.00
2018-04-06T05:33:26.482Z,1576.00
2018-04-06T05:34:26.556Z,1616.00
2018-04-06T05:35:26.754Z,1652.00
2018-04-06T05:36:26.854Z,1692.00
2018-04-06T05:37:26.975Z,1740.00
2018-04-06T05:38:26.957Z,1788.00
2018-04-06T05:39:26.817Z,1840.00
2018-04-06T05:40:26.937Z,1884.00
2018-04-06T05:41:27.073Z,1932.00
2018-04-06T05:42:27.045Z,1980.00
2018-04-06T05:43:27.427Z,2032.00
2018-04-06T05:44:28.061Z,2080.00
2018-04-06T05:45:27.209Z,2128.00
2018-04-06T05:46:27.302Z,2164.00
2018-04-06T05:47:27.509Z,2200.00
2018-04-06T05:48:27.422Z,2240.00
2018-04-06T05:49:27.418Z,2284.00
2018-04-06T05:50:27.462Z,2332.00
2018-04-06T05:51:27.538Z,2376.00
2018-04-06T05:52:27.809Z,2416.00
2018-04-06T05:53:27.638Z,2448.00
2018-04-06T05:54:27.738Z,2480.00
2018-04-06T05:55:27.818Z,2536.00
2018-04-06T05:56:27.850Z,2576.00
2018-04-06T05:57:27.910Z,2612.00
2018-04-06T05:58:28.026Z,2644.00
2018-04-06T05:59:27.978Z,2668.00
2018-04-06T06:00:28.066Z,2708.00
2018-04-06T06:01:28.097Z,2744.00
2018-04-06T06:02:28.258Z,2784.00
2018-04-06T06:03:28.194Z,2828.00
2018-04-06T06:04:28.438Z,2864.00
2018-04-06T06:05:28.322Z,2904.00
2018-04-06T06:06:28.418Z,2948.00
2018-04-06T06:07:28.462Z,2988.00
2018-04-06T06:08:28.555Z,3032.00
2018-04-06T06:09:28.601Z,3064.00
2018-04-06T06:10:28.607Z,3104.00
2018-04-06T06:11:28.752Z,3140.00
2018-04-06T06:12:28.779Z,3160.00
2018-04-06T06:13:28.862Z,3192.00
2018-04-06T06:14:28.858Z,3236.00
2018-04-06T06:15:28.939Z,3288.00
2018-04-06T06:16:29.111Z,3328.00
2018-04-06T06:17:29.122Z,3352.00
2018-04-06T06:18:29.167Z,3364.00
2018-04-06T06:19:29.319Z,3404.00
2018-04-06T06:20:29.243Z,3444.00
2018-04-06T06:21:29.343Z,3476.00
2018-04-06T06:22:29.343Z,3524.00
2018-04-06T06:23:29.398Z,3576.00
2018-04-06T06:24:29.430Z,3608.00
2018-04-06T06:25:29.510Z,3652.00
2018-04-06T06:26:29.566Z,3688.00
2018-04-06T06:27:29.675Z,3720.00
2018-04-06T06:28:29.695Z,3756.00
2018-04-06T06:29:29.739Z,3808.00
2018-04-06T06:30:29.875Z,3848.00
2018-04-06T06:31:29.847Z,3880.00
2018-04-06T06:32:29.911Z,3908.00
2018-04-06T06:33:29.965Z,3956.00
2018-04-06T06:34:30.127Z,4008.00
2018-04-06T06:35:30.087Z,4080.00
2018-04-06T06:36:30.151Z,4112.00
2018-04-06T06:37:30.819Z,4140.00
2018-04-06T06:38:30.273Z,4180.00
2018-04-06T06:39:30.308Z,4220.00
2018-04-06T06:40:30.367Z,4248.00
2018-04-06T06:41:30.491Z,4280.00
2018-04-06T06:42:30.485Z,4320.00
2018-04-06T06:43:30.724Z,4356.00
2018-04-06T06:44:30.892Z,4376.00
2018-04-06T06:45:30.698Z,4384.00
2018-04-06T06:46:30.750Z,4400.00
2018-04-06T06:47:30.828Z,4432.00
2018-04-06T06:48:30.852Z,4464.00
2018-04-06T06:49:30.911Z,4520.00
2018-04-06T06:50:30.992Z,4564.00
2018-04-06T06:51:31.016Z,4576.00
2018-04-06T06:52:31.104Z,4588.00
2018-04-06T06:53:31.271Z,4628.00
2018-04-06T06:54:31.208Z,4672.00
2018-04-06T06:55:31.251Z,4688.00
2018-04-06T06:56:31.328Z,4728.00
2018-04-06T06:57:31.392Z,4760.00
2018-04-06T06:58:31.448Z,4816.00
2018-04-06T06:59:31.504Z,4832.00
2018-04-06T07:00:31.564Z,4868.00
2018-04-06T07:01:31.612Z,4896.00
2018-04-06T07:02:31.668Z,4960.00
2018-04-06T07:03:31.768Z,5012.00
2018-04-06T07:04:31.802Z,5056.00
2018-04-06T07:05:31.856Z,5100.00
2018-04-06T07:06:31.901Z,5140.00
2018-04-06T07:07:31.996Z,5148.00
2018-04-06T07:08:32.045Z,5188.00
2018-04-06T07:09:32.102Z,5216.00
2018-04-06T07:10:32.136Z,5244.00
2018-04-06T07:11:32.201Z,5268.00
2018-04-06T07:12:32.301Z,5328.00
2018-04-06T07:13:32.541Z,5348.00
2018-04-06T07:14:32.465Z,5388.00
2018-04-06T07:15:32.466Z,5440.00
2018-04-06T07:16:32.505Z,5472.00
2018-04-06T07:17:32.564Z,5524.00
2018-04-06T07:18:32.629Z,5540.00
2018-04-06T07:19:32.693Z,5572.00
2018-04-06T07:20:32.745Z,5648.00
2018-04-06T07:21:32.829Z,5728.00
2018-04-06T07:22:32.865Z,14000.00
2018-04-06T07:23:32.933Z,42112.00
2018-04-06T07:24:33.021Z,71584.00
2018-04-06T07:25:33.037Z,78144.00
2018-04-06T07:26:33.093Z,78880.00
2018-04-06T07:27:33.166Z,79904.00
2018-04-06T07:28:33.270Z,79776.00
2018-04-06T07:29:33.329Z,80032.00
2018-04-06T07:30:33.341Z,79232.00
2018-04-06T07:31:33.421Z,78816.00
2018-04-06T07:32:33.457Z,77248.00
2018-04-06T07:33:33.549Z,77184.00
2018-04-06T07:34:33.613Z,78752.00
2018-04-06T07:35:33.662Z,79456.00
2018-04-06T07:36:33.725Z,79648.00
2018-04-06T07:37:33.786Z,79424.00
2018-04-06T07:38:33.882Z,80064.00
2018-04-06T07:39:33.925Z,79264.00
2018-04-06T07:40:33.984Z,73664.00
2018-04-06T07:41:34.033Z,67328.00
2018-04-06T07:42:34.122Z,76032.00
2018-04-06T07:43:34.194Z,80448.00
2018-04-06T07:44:34.240Z,78816.00
2018-04-06T07:45:34.298Z,80160.00
2018-04-06T07:46:34.366Z,79712.00
2018-04-06T07:47:34.430Z,78592.00
2018-04-06T07:48:34.549Z,78336.00
2018-04-06T07:49:34.578Z,79328.00
2018-04-06T07:50:34.646Z,81696.00
2018-04-06T07:51:34.706Z,83072.00
2018-04-06T07:52:34.762Z,80384.00
2018-04-06T07:53:34.834Z,80416.00
2018-04-06T07:54:34.959Z,84160.00
2018-04-06T07:55:34.966Z,82880.00
2018-04-06T07:56:35.066Z,72864.00
2018-04-06T07:57:35.107Z,68384.00
2018-04-06T07:58:35.286Z,78656.00
2018-04-06T07:59:35.246Z,82272.00
2018-04-06T08:00:35.314Z,83776.00
2018-04-06T08:01:35.378Z,83424.00
2018-04-06T08:02:35.454Z,83200.00
2018-04-06T08:03:35.523Z,80352.00
2018-04-06T08:04:35.583Z,83872.00
2018-04-06T08:05:35.692Z,83008.00
2018-04-06T08:06:35.723Z,81792.00
2018-04-06T08:07:35.787Z,83616.00
2018-04-06T08:08:35.863Z,80160.00
2018-04-06T08:09:35.930Z,78720.00
2018-04-06T08:10:35.994Z,81152.00
2018-04-06T08:11:36.063Z,79936.00
2018-04-06T08:12:36.131Z,81120.00
2018-04-06T08:13:36.215Z,82272.00
2018-04-06T08:14:36.267Z,81568.00
2018-04-06T08:15:36.335Z,80064.00
2018-04-06T08:16:36.412Z,78048.00
2018-04-06T08:17:36.482Z,77952.00
2018-04-06T08:18:36.563Z,80096.00
2018-04-06T08:19:36.632Z,78432.00
2018-04-06T08:20:36.683Z,75872.00
2018-04-06T08:21:36.756Z,76096.00
2018-04-06T08:22:36.821Z,78944.00
2018-04-06T08:23:36.895Z,78496.00
2018-04-06T08:24:36.964Z,74912.00
2018-04-06T08:25:37.032Z,76960.00
2018-04-06T08:26:37.107Z,77280.00
2018-04-06T08:27:37.163Z,76352.00
2018-04-06T08:28:37.272Z,75936.00
2018-04-06T08:29:37.300Z,75104.00
2018-04-06T08:30:37.371Z,74368.00
2018-04-06T08:31:37.439Z,73728.00
2018-04-06T08:32:37.512Z,73280.00
2018-04-06T08:33:37.583Z,72480.00
2018-04-06T08:34:37.652Z,75136.00
2018-04-06T08:35:37.713Z,73664.00
2018-04-06T08:36:37.800Z,72992.00
2018-04-06T08:37:37.852Z,72032.00
2018-04-06T08:38:37.928Z,74048.00
2018-04-06T08:39:38.006Z,74112.00
2018-04-06T08:40:38.060Z,70464.00
2018-04-06T08:41:38.128Z,69600.00
2018-04-06T08:42:38.196Z,68576.00
2018-04-06T08:43:38.264Z,66336.00
2018-04-06T08:44:38.356Z,66592.00
2018-04-06T08:45:38.404Z,66752.00
2018-04-06T08:46:38.476Z,68192.00
2018-04-06T08:47:38.548Z,67136.00
2018-04-06T08:48:38.609Z,62784.00
2018-04-06T08:49:38.685Z,51008.00
2018-04-06T08:50:38.760Z,42752.00
2018-04-06T08:51:38.820Z,51872.00
2018-04-06T08:52:38.885Z,49440.00
2018-04-06T08:53:38.957Z,28256.00
2018-04-06T08:54:39.062Z,21632.00
2018-04-06T08:55:39.105Z,21024.00
2018-04-06T08:56:39.165Z,20448.00
2018-04-06T08:57:39.229Z,19936.00
2018-04-06T08:58:39.309Z,19776.00
2018-04-06T08:59:39.481Z,19168.00
2018-04-06T09:00:39.437Z,18944.00
2018-04-06T09:01:39.509Z,18784.00
2018-04-06T09:02:39.577Z,18528.00
2018-04-06T09:03:39.650Z,18336.00
2018-04-06T09:04:39.732Z,18080.00
2018-04-06T09:05:39.789Z,17824.00
2018-04-06T09:06:39.853Z,17728.00
2018-04-06T09:07:39.918Z,17600.00
2018-04-06T09:08:39.989Z,17472.00
2018-04-06T09:09:40.065Z,17280.00
2018-04-06T09:10:40.133Z,17248.00
2018-04-06T09:11:40.193Z,17344.00
2018-04-06T09:12:40.326Z,17344.00
2018-04-06T09:13:40.334Z,17216.00
2018-04-06T09:14:40.405Z,17184.00
2018-04-06T09:15:40.476Z,17056.00
2018-04-06T09:16:40.542Z,16864.00
2018-04-06T09:17:40.606Z,16512.00
2018-04-06T09:18:40.674Z,16480.00
2018-04-06T09:19:40.749Z,16640.00
2018-04-06T09:20:40.818Z,16320.00
2018-04-06T09:21:40.878Z,16256.00
2018-04-06T09:22:40.953Z,16256.00
2018-04-06T09:23:41.014Z,16224.00
2018-04-06T09:24:41.094Z,16032.00
2018-04-06T09:25:41.162Z,16000.00
2018-04-06T09:26:41.223Z,16000.00
2018-04-06T09:27:41.290Z,15936.00
2018-04-06T09:28:41.362Z,15968.00
2018-04-06T09:29:41.430Z,16192.00
2018-04-06T09:30:41.507Z,16512.00
2018-04-06T09:31:41.682Z,17024.00
2018-04-06T09:32:41.630Z,17120.00
2018-04-06T09:33:41.698Z,16640.00
2018-04-06T09:34:41.771Z,16288.00
2018-04-06T09:35:41.838Z,15968.00
2018-04-06T09:36:41.900Z,15392.00
2018-04-06T09:37:41.966Z,14692.00
2018-04-06T09:38:42.038Z,13884.00
2018-04-06T09:39:42.254Z,13160.00
2018-04-06T09:40:42.172Z,12876.00
2018-04-06T09:41:42.243Z,12612.00
2018-04-06T09:42:42.307Z,12420.00
2018-04-06T09:43:42.379Z,12236.00
2018-04-06T09:44:42.447Z,12024.00
2018-04-06T09:45:42.521Z,11788.00
2018-04-06T09:46:42.575Z,11624.00
2018-04-06T09:47:42.639Z,11416.00
2018-04-06T09:48:42.707Z,11236.00
2018-04-06T09:49:42.795Z,11012.00
2018-04-06T09:50:42.859Z,10840.00
2018-04-06T09:51:42.912Z,10656.00
2018-04-06T09:52:42.979Z,10492.00
2018-04-06T09:53:43.044Z,10316.00
2018-04-06T09:54:43.459Z,10172.00
2018-04-06T09:55:43.183Z,10004.00
2018-04-06T09:56:43.248Z,9832.00
2018-04-06T09:57:43.312Z,9660.00
2018-04-06T09:58:43.383Z,9504.00
2018-04-06T09:59:43.459Z,9348.00
2018-04-06T10:00:43.520Z,9208.00
2018-04-06T10:01:43.579Z,9012.00
2018-04-06T10:02:43.648Z,8872.00
2018-04-06T10:03:43.712Z,8672.00
2018-04-06T10:04:43.787Z,8508.00
2018-04-06T10:05:43.864Z,8304.00
2018-04-06T10:06:43.920Z,8160.00
2018-04-06T10:07:43.984Z,7988.00
2018-04-06T10:08:44.048Z,7808.00
2018-04-06T10:09:44.128Z,7608.00
2018-04-06T10:10:44.180Z,7500.00
2018-04-06T10:11:44.248Z,7312.00
2018-04-06T10:12:44.320Z,7248.00
2018-04-06T10:13:44.380Z,7088.00
2018-04-06T10:14:44.456Z,6952.00
2018-04-06T10:15:44.520Z,6820.00
2018-04-06T10:16:44.589Z,6704.00
2018-04-06T10:17:44.659Z,6584.00
2018-04-06T10:18:44.721Z,6444.00
2018-04-06T10:19:44.793Z,6340.00
2018-04-06T10:20:44.861Z,6260.00
2018-04-06T10:21:44.929Z,6204.00
2018-04-06T10:22:44.981Z,6172.00
2018-04-06T10:23:45.049Z,6120.00
2018-04-06T10:24:45.289Z,6068.00
2018-04-06T10:25:45.185Z,6024.00
2018-04-06T10:26:45.249Z,5976.00
2018-04-06T10:27:45.312Z,5924.00
2018-04-06T10:28:45.385Z,5872.00
2018-04-06T10:29:45.457Z,5832.00
2018-04-06T10:30:45.525Z,5776.00
2018-04-06T10:31:45.585Z,5740.00
2018-04-06T10:32:45.645Z,5676.00
2018-04-06T10:33:45.713Z,5656.00
2018-04-06T10:34:45.789Z,5616.00
2018-04-06T10:35:45.853Z,5556.00
2018-04-06T10:36:45.918Z,5520.00
2018-04-06T10:37:45.981Z,5488.00
2018-04-06T10:38:46.045Z,5432.00
2018-04-06T10:39:46.269Z,5360.00
2018-04-06T10:40:46.186Z,5296.00
2018-04-06T10:41:46.241Z,5240.00
2018-04-06T10:42:46.310Z,5208.00
2018-04-06T10:43:46.403Z,5152.00
2018-04-06T10:44:46.450Z,5116.00
2018-04-06T10:45:46.526Z,5084.00
2018-04-06T10:46:46.602Z,5044.00
2018-04-06T10:47:46.641Z,5000.00
2018-04-06T10:48:46.705Z,4968.00
2018-04-06T10:49:46.778Z,4952.00
2018-04-06T10:50:46.844Z,4920.00
2018-04-06T10:51:46.903Z,4864.00
2018-04-06T10:52:46.970Z,4860.00
2018-04-06T10:53:47.046Z,4828.00
2018-04-06T10:54:47.118Z,4800.00
2018-04-06T10:55:47.187Z,4784.00
2018-04-06T10:56:47.240Z,4772.00
2018-04-06T10:57:47.298Z,4740.00
2018-04-06T10:58:47.362Z,4732.00
2018-04-06T10:59:47.434Z,4716.00
2018-04-06T11:00:47.503Z,4700.00
2018-04-06T11:01:47.566Z,4688.00
2018-04-06T11:02:47.630Z,4680.00
2018-04-06T11:03:47.690Z,4680.00
2018-04-06T11:04:47.766Z,4652.00
2018-04-06T11:05:47.830Z,4644.00
2018-04-06T11:06:47.890Z,4628.00
2018-04-06T11:07:47.963Z,4628.00
2018-04-06T11:08:48.026Z,4608.00
2018-04-06T11:09:48.130Z,4600.00
2018-04-06T11:10:48.154Z,4600.00
2018-04-06T11:11:48.225Z,4592.00
2018-04-06T11:12:48.299Z,4588.00
2018-04-06T11:13:48.350Z,4584.00
2018-04-06T11:14:48.426Z,4568.00
2018-04-06T11:15:48.494Z,4556.00
2018-04-06T11:16:48.547Z,4560.00
2018-04-06T11:17:48.611Z,4564.00
2018-04-06T11:18:48.679Z,4548.00
2018-04-06T11:19:48.754Z,4552.00
2018-04-06T11:20:48.847Z,4552.00
2018-04-06T11:21:48.875Z,4552.00
2018-04-06T11:22:48.943Z,4556.00
2018-04-06T11:23:49.011Z,4560.00
2018-04-06T11:24:49.115Z,4560.00
2018-04-06T11:25:49.143Z,4556.00
2018-04-06T11:26:49.211Z,4544.00
2018-04-06T11:27:49.271Z,4548.00
2018-04-06T11:28:49.352Z,4556.00
2018-04-06T11:29:49.423Z,4556.00
2018-04-06T11:30:49.488Z,4556.00
2018-04-06T11:31:49.540Z,4548.00
2018-04-06T11:32:49.603Z,4548.00
2018-04-06T11:33:49.668Z,4544.00
2018-04-06T11:34:49.751Z,4548.00
2018-04-06T11:35:49.807Z,4548.00
2018-04-06T11:36:49.879Z,4544.00
2018-04-06T11:37:49.945Z,4544.00
2018-04-06T11:38:50.000Z,4536.00
2018-04-06T11:39:50.075Z,4540.00
2018-04-06T11:40:50.135Z,4532.00
2018-04-06T11:41:50.196Z,4544.00
2018-04-06T11:42:50.268Z,4532.00
2018-04-06T11:43:50.327Z,4540.00
2018-04-06T11:44:50.412Z,4536.00
2018-04-06T11:45:50.499Z,4540.00
2018-04-06T11:46:50.536Z,4540.00
2018-04-06T11:47:50.588Z,4552.00
2018-04-06T11:48:50.661Z,4556.00
2018-04-06T11:49:50.744Z,4548.00
2018-04-06T11:50:50.812Z,4540.00
2018-04-06T11:51:50.860Z,4556.00
2018-04-06T11:52:50.924Z,4552.00
2018-04-06T11:53:50.992Z,4560.00
2018-04-06T11:54:51.059Z,4560.00
2018-04-06T11:55:51.148Z,4556.00
2018-04-06T11:56:51.196Z,4556.00
2018-04-06T11:57:51.256Z,4576.00
2018-04-06T11:58:51.324Z,4572.00
2018-04-06T11:59:51.394Z,4600.00
2018-04-06T12:00:51.466Z,4592.00
2018-04-06T12:01:51.532Z,4576.00
2018-04-06T12:02:51.588Z,4508.00
2018-04-06T12:03:51.665Z,4464.00
2018-04-06T12:04:51.721Z,4532.00
2018-04-06T12:05:51.797Z,4596.00
2018-04-06T12:06:51.861Z,4552.00
2018-04-06T12:07:51.967Z,4556.00
2018-04-06T12:08:51.987Z,4588.00
2018-04-06T12:09:52.054Z,4608.00
2018-04-06T12:10:52.142Z,4604.00
2018-04-06T12:11:52.189Z,4592.00
2018-04-06T12:12:52.249Z,4612.00
2018-04-06T12:13:52.317Z,4624.00
2018-04-06T12:14:52.413Z,4620.00
2018-04-06T12:15:52.456Z,4632.00
2018-04-06T12:16:52.521Z,4632.00
2018-04-06T12:17:52.582Z,4636.00
2018-04-06T12:18:52.649Z,4636.00
2018-04-06T12:19:52.717Z,4640.00
2018-04-06T12:20:52.785Z,4644.00
2018-04-06T12:21:52.868Z,4652.00
2018-04-06T12:22:52.913Z,4656.00
2018-04-06T12:23:52.988Z,4652.00
2018-04-06T12:24:53.046Z,4664.00
2018-04-06T12:25:53.278Z,4664.00
2018-04-06T12:26:53.181Z,4672.00
2018-04-06T12:27:53.284Z,4668.00
2018-04-06T12:28:53.309Z,4672.00